Time;durP1;ratioP1;P1;durP2;ratioP2;P2;SDS_P1;SDS_P2;PMS_P1;PMS_P2;Temp;Humidity;BMP_temperature;BMP_pressure;BME280_temperature;BME280_humidity;BME280_pressure;Samples;Min_cycle;Max_cycle;Signal;HPM_P1;HPM_P2
2021/03/09 00:02:20;;;;;;;4.27;2.30;;;5.80;53.70;;;;;;5035074;28;20040;-91
2021/03/09 00:04:46;;;;;;;2.27;1.17;;;5.90;53.90;;;;;;5061794;28;20033;-91
2021/03/09 00:07:12;;;;;;;6.60;1.57;;;5.90;53.90;;;;;;5079134;28;20032;-91
2021/03/09 00:09:38;;;;;;;12.70;3.17;;;5.90;53.90;;;;;;5065361;28;20064;-91
2021/03/09 00:12:04;;;;;;;6.47;2.73;;;5.80;54.50;;;;;;5070412;28;20041;-90
2021/03/09 00:14:31;;;;;;;5.60;3.33;;;5.80;54.00;;;;;;5073103;28;20037;-91
2021/03/09 00:16:57;;;;;;;5.30;2.07;;;5.80;54.00;;;;;;5072848;28;20398;-91
2021/03/09 00:19:23;;;;;;;6.17;2.13;;;5.70;54.10;;;;;;5072547;28;20032;-90
2021/03/09 00:21:49;;;;;;;4.20;2.07;;;5.70;54.10;;;;;;5072600;28;20029;-90
2021/03/09 00:24:16;;;;;;;5.03;1.33;;;5.70;54.20;;;;;;5069639;28;20129;-92
2021/03/09 00:26:42;;;;;;;6.80;2.03;;;5.70;54.20;;;;;;5100373;28;20037;-83
2021/03/09 00:29:08;;;;;;;5.63;1.83;;;5.70;54.30;;;;;;5074043;28;20048;-90
2021/03/09 00:31:34;;;;;;;6.53;1.73;;;5.60;54.30;;;;;;5050865;28;20041;-92
2021/03/09 00:34:00;;;;;;;11.73;3.27;;;5.60;54.30;;;;;;5070742;28;20426;-90
2021/03/09 00:36:26;;;;;;;5.17;2.00;;;5.60;54.40;;;;;;5070229;28;20025;-90
2021/03/09 00:38:52;;;;;;;10.60;2.13;;;5.60;54.40;;;;;;5074239;28;20037;-90
2021/03/09 00:41:18;;;;;;;5.70;2.37;;;5.60;54.50;;;;;;5087668;28;20035;-91
2021/03/09 00:43:44;;;;;;;10.47;2.07;;;5.50;54.50;;;;;;5072346;28;20041;-90
2021/03/09 00:46:10;;;;;;;4.77;2.43;;;5.50;54.50;;;;;;5072716;28;20040;-90
2021/03/09 00:48:39;;;;;;;5.47;2.47;;;5.50;54.70;;;;;;5070254;28;20035;-90
2021/03/09 00:51:06;;;;;;;4.90;2.07;;;5.40;54.60;;;;;;5052567;28;20051;-91
2021/03/09 00:53:32;;;;;;;5.73;2.00;;;5.40;54.60;;;;;;5074121;28;20029;-90
2021/03/09 00:55:58;;;;;;;5.40;2.53;;;5.40;54.60;;;;;;5071513;28;20049;-90
2021/03/09 00:58:24;;;;;;;2.50;1.13;;;5.40;54.70;;;;;;5071244;28;20025;-89
2021/03/09 01:00:50;;;;;;;7.33;2.80;;;5.40;54.80;;;;;;5070250;28;20045;-88
2021/03/09 01:03:16;;;;;;;8.17;2.33;;;5.30;54.80;;;;;;5051340;28;20033;-90
2021/03/09 01:05:42;;;;;;;7.70;1.73;;;5.30;54.80;;;;;;5072648;28;20036;-90
2021/03/09 01:08:08;;;;;;;6.73;1.50;;;5.30;54.90;;;;;;5073292;28;20062;-91
2021/03/09 01:10:35;;;;;;;4.80;2.67;;;5.20;54.90;;;;;;5073211;28;20028;-90
2021/03/09 01:13:01;;;;;;;6.00;2.23;;;5.20;54.90;;;;;;5072989;28;20035;-88
2021/03/09 01:15:27;;;;;;;5.50;1.80;;;5.20;55.00;;;;;;5069724;28;20048;-90
2021/03/09 01:17:53;;;;;;;4.17;1.83;;;5.20;55.10;;;;;;5073258;28;20033;-90
2021/03/09 01:20:19;;;;;;;12.80;2.70;;;5.10;55.10;;;;;;5090487;28;20039;-91
2021/03/09 01:22:45;;;;;;;4.07;1.77;;;5.10;55.10;;;;;;5075152;28;20028;-90
2021/03/09 01:25:11;;;;;;;3.03;1.60;;;5.10;55.20;;;;;;5073674;28;20028;-90
2021/03/09 01:27:38;;;;;;;3.67;1.83;;;5.00;55.20;;;;;;5069880;28;20047;-90
2021/03/09 01:30:05;;;;;;;5.47;1.60;;;5.00;55.30;;;;;;5052038;28;20033;-87
2021/03/09 01:32:31;;;;;;;4.53;1.90;;;5.00;55.90;;;;;;5070627;28;20025;-91
2021/03/09 01:34:57;;;;;;;5.57;2.57;;;4.90;55.30;;;;;;5072046;28;20037;-91
2021/03/09 01:37:24;;;;;;;5.80;3.30;;;5.00;55.40;;;;;;5072602;28;20029;-91
2021/03/09 01:39:50;;;;;;;3.27;1.93;;;4.90;55.40;;;;;;5070115;28;20046;-88
2021/03/09 01:42:16;;;;;;;2.97;1.67;;;4.90;55.50;;;;;;5064501;28;20064;-91
2021/03/09 01:44:42;;;;;;;5.53;1.57;;;4.90;55.50;;;;;;5062373;28;20033;-91
2021/03/09 01:47:08;;;;;;;3.03;2.20;;;4.90;55.60;;;;;;5064544;28;20040;-91
2021/03/09 01:49:38;;;;;;;5.13;1.70;;;4.80;55.50;;;;;;5070977;28;20025;-88
2021/03/09 01:52:05;;;;;;;8.40;3.00;;;4.80;55.60;;;;;;5079961;28;20062;-90
2021/03/09 01:54:32;;;;;;;3.90;2.03;;;4.80;55.60;;;;;;5063170;28;20031;-90
2021/03/09 01:56:58;;;;;;;5.90;2.37;;;4.80;55.70;;;;;;5063354;28;20036;-91
2021/03/09 01:59:24;;;;;;;6.87;2.13;;;4.70;55.70;;;;;;5043888;28;20036;-91
2021/03/09 02:01:50;;;;;;;12.33;3.60;;;4.70;55.70;;;;;;5062910;28;20048;-90
2021/03/09 02:04:16;;;;;;;7.67;2.13;;;4.70;55.80;;;;;;5062353;28;20060;-91
2021/03/09 02:06:42;;;;;;;6.10;3.17;;;4.70;55.80;;;;;;5059295;28;20037;-91
2021/03/09 02:09:09;;;;;;;6.73;2.97;;;4.60;55.80;;;;;;5041265;28;20124;-91
2021/03/09 02:11:45;;;;;;;9.60;2.70;;;4.60;55.90;;;;;;5045702;28;20041;-91
2021/03/09 02:14:18;;;;;;;4.97;2.40;;;4.60;55.90;;;;;;5062480;28;20025;-91
2021/03/09 02:17:06;;;;;;;5.70;2.00;;;4.60;55.90;;;;;;5045648;28;20040;-91
2021/03/09 02:19:54;;;;;;;3.67;1.90;;;4.50;56.00;;;;;;5069051;28;20028;-91
2021/03/09 02:22:40;;;;;;;5.40;2.17;;;4.50;56.00;;;;;;5072408;28;20045;-91
2021/03/09 02:25:34;;;;;;;2.33;1.63;;;4.50;56.00;;;;;;5079654;28;20044;-90
2021/03/09 02:28:08;;;;;;;5.97;2.40;;;4.50;56.10;;;;;;5058634;28;20478;-91
2021/03/09 02:30:40;;;;;;;4.83;2.03;;;4.40;56.10;;;;;;5059446;28;20048;-91
2021/03/09 02:33:23;;;;;;;5.13;2.05;;;4.40;56.10;;;;;;5062349;28;20040;-89
2021/03/09 02:36:28;;;;;;;16.57;1.50;;;4.40;56.20;;;;;;5075875;28;20036;-91
2021/03/09 02:38:57;;;;;;;3.83;1.63;;;4.40;56.20;;;;;;5036170;28;20038;-90
2021/03/09 02:41:23;;;;;;;7.10;2.97;;;4.30;56.20;;;;;;5006293;28;20029;-90
2021/03/09 02:43:52;;;;;;;7.53;3.60;;;4.20;56.20;;;;;;5013722;28;20044;-91
2021/03/09 02:46:18;;;;;;;6.07;2.00;;;4.30;56.30;;;;;;5008205;28;20041;-90
2021/03/09 02:48:44;;;;;;;4.63;1.67;;;4.20;56.30;;;;;;5017444;28;20026;-91
2021/03/09 02:51:10;;;;;;;2.63;1.80;;;4.20;56.40;;;;;;5025980;28;20104;-90
2021/03/09 02:53:37;;;;;;;4.30;2.27;;;4.20;56.40;;;;;;5021188;28;20044;-91
2021/03/09 02:56:04;;;;;;;2.13;1.43;;;4.20;56.50;;;;;;5035605;28;20052;-91
2021/03/09 02:58:30;;;;;;;10.77;2.40;;;4.20;56.50;;;;;;5030357;28;20033;-91
2021/03/09 03:00:56;;;;;;;4.50;2.23;;;4.20;56.60;;;;;;5018514;28;20527;-89
2021/03/09 03:03:23;;;;;;;2.50;2.10;;;4.10;57.20;;;;;;5015071;28;20049;-88
2021/03/09 03:05:49;;;;;;;9.43;2.23;;;4.10;56.60;;;;;;5022040;28;20034;-90
2021/03/09 03:08:15;;;;;;;5.50;2.40;;;4.10;56.60;;;;;;5026591;28;20041;-90
2021/03/09 03:10:47;;;;;;;3.23;2.47;;;4.10;56.70;;;;;;5039195;28;20041;-90
2021/03/09 03:13:13;;;;;;;1.47;1.37;;;4.10;56.70;;;;;;5076473;28;20033;-90
2021/03/09 03:15:40;;;;;;;3.07;1.53;;;4.10;56.70;;;;;;5047236;28;20041;-90
2021/03/09 03:18:09;;;;;;;3.70;2.00;;;4.10;56.70;;;;;;5065418;28;20029;-90
2021/03/09 03:20:35;;;;;;;3.10;1.43;;;4.10;56.70;;;;;;5053284;28;20033;-90
2021/03/09 03:23:02;;;;;;;4.03;1.63;;;4.10;56.80;;;;;;5044738;28;20034;-89
2021/03/09 03:25:28;;;;;;;3.67;1.83;;;4.10;56.80;;;;;;5063834;28;20044;-88
2021/03/09 03:27:54;;;;;;;2.93;1.50;;;4.00;56.80;;;;;;5030816;28;20042;-89
2021/03/09 03:30:21;;;;;;;3.13;1.03;;;4.00;56.90;;;;;;5032611;28;20029;-89
2021/03/09 03:32:47;;;;;;;3.70;1.60;;;3.90;56.90;;;;;;5063723;28;20409;-88
2021/03/09 03:35:14;;;;;;;4.03;1.33;;;3.90;57.00;;;;;;5053514;28;20041;-86
2021/03/09 03:37:40;;;;;;;4.43;2.10;;;3.90;57.00;;;;;;5046475;28;20032;-90
2021/03/09 03:40:08;;;;;;;2.47;1.43;;;3.90;57.00;;;;;;5064010;28;20062;-90
2021/03/09 03:42:35;;;;;;;3.77;2.03;;;3.90;57.00;;;;;;5075209;28;20049;-89
2021/03/09 03:45:01;;;;;;;7.20;1.83;;;3.90;57.10;;;;;;5058061;28;20227;-89
2021/03/09 03:47:27;;;;;;;4.50;2.17;;;3.90;57.10;;;;;;5058395;28;20044;-89
2021/03/09 03:49:53;;;;;;;3.90;2.20;;;3.90;57.20;;;;;;5079281;28;20021;-90
2021/03/09 03:52:23;;;;;;;3.43;1.60;;;3.90;57.30;;;;;;5078779;28;20045;-90
2021/03/09 03:55:09;;;;;;;7.17;2.77;;;3.80;57.20;;;;;;5061296;28;20029;-90
2021/03/09 03:57:43;;;;;;;2.97;1.63;;;3.80;57.30;;;;;;5060183;28;20033;-91
2021/03/09 04:00:10;;;;;;;3.97;1.80;;;3.80;57.30;;;;;;5051250;28;20043;-90
2021/03/09 04:02:37;;;;;;;7.07;2.17;;;3.70;57.30;;;;;;5076544;28;20037;-89
2021/03/09 04:05:05;;;;;;;6.37;1.77;;;3.70;57.40;;;;;;5061988;28;20031;-90
2021/03/09 04:07:32;;;;;;;4.47;2.07;;;3.70;57.40;;;;;;5044429;28;20041;-91
2021/03/09 04:09:58;;;;;;;3.03;1.70;;;3.70;57.50;;;;;;5062029;28;20028;-90
2021/03/09 04:12:27;;;;;;;7.07;3.23;;;3.70;57.50;;;;;;5090647;28;20055;-89
2021/03/09 04:14:55;;;;;;;5.77;1.80;;;3.60;57.50;;;;;;5063137;28;20023;-89
2021/03/09 04:17:21;;;;;;;5.90;1.60;;;3.60;57.60;;;;;;5058185;28;20041;-90
2021/03/09 04:19:47;;;;;;;2.93;1.53;;;3.60;57.60;;;;;;5073462;28;20025;-88
2021/03/09 04:22:14;;;;;;;2.57;1.13;;;3.60;57.60;;;;;;5078172;28;20028;-90
2021/03/09 04:24:41;;;;;;;3.27;1.27;;;3.60;57.60;;;;;;5075608;28;20021;-90
2021/03/09 04:27:07;;;;;;;3.57;2.43;;;3.60;57.70;;;;;;5075522;28;20029;-89
2021/03/09 04:29:33;;;;;;;2.10;1.20;;;3.50;57.60;;;;;;5074598;28;20052;-89
2021/03/09 04:32:00;;;;;;;2.63;1.50;;;3.50;57.60;;;;;;5077798;28;20047;-90
2021/03/09 04:34:26;;;;;;;8.20;1.90;;;3.60;57.70;;;;;;5080619;28;20027;-89
2021/03/09 04:36:52;;;;;;;2.40;1.83;;;3.50;57.70;;;;;;5087787;28;20036;-89
2021/03/09 04:39:18;;;;;;;7.40;3.17;;;3.50;57.70;;;;;;5073415;28;20025;-90
2021/03/09 04:41:44;;;;;;;4.40;1.90;;;3.40;57.70;;;;;;5079049;28;20045;-90
2021/03/09 04:44:10;;;;;;;5.23;1.77;;;3.40;57.80;;;;;;5080426;28;20029;-89
2021/03/09 04:46:36;;;;;;;7.83;2.57;;;3.40;57.80;;;;;;5079168;28;20021;-87
2021/03/09 04:49:04;;;;;;;6.17;2.30;;;3.40;57.80;;;;;;5079299;28;20032;-89
2021/03/09 04:51:30;;;;;;;6.77;1.90;;;3.40;57.90;;;;;;5075872;28;20067;-89
2021/03/09 04:53:58;;;;;;;4.50;2.07;;;3.40;57.90;;;;;;5073599;28;20036;-88
2021/03/09 04:56:24;;;;;;;4.17;2.37;;;3.40;57.90;;;;;;5032140;28;20125;-90
2021/03/09 04:58:50;;;;;;;7.60;1.43;;;3.40;58.50;;;;;;5060816;28;20033;-90
2021/03/09 05:01:16;;;;;;;5.50;2.10;;;3.40;57.90;;;;;;5066059;28;20462;-89
2021/03/09 05:03:42;;;;;;;2.50;1.43;;;3.40;58.00;;;;;;5035086;28;20029;-87
2021/03/09 05:06:08;;;;;;;3.20;1.83;;;3.40;58.00;;;;;;5060648;28;20033;-88
2021/03/09 05:08:34;;;;;;;6.30;2.87;;;3.30;58.00;;;;;;5050466;28;20392;-87
2021/03/09 05:11:00;;;;;;;6.20;1.93;;;3.30;58.00;;;;;;5047496;28;20028;-86
2021/03/09 05:13:27;;;;;;;4.33;2.20;;;3.30;58.10;;;;;;5058234;28;20474;-85
2021/03/09 05:15:53;;;;;;;3.73;1.40;;;3.30;58.10;;;;;;5048805;28;20508;-91
2021/03/09 05:18:19;;;;;;;5.17;1.97;;;3.30;58.20;;;;;;5051189;28;20044;-90
2021/03/09 05:20:45;;;;;;;10.53;1.53;;;3.20;58.20;;;;;;5067065;28;20020;-92
2021/03/09 05:23:11;;;;;;;9.37;3.33;;;3.20;58.20;;;;;;5053083;28;20044;-91
2021/03/09 05:25:37;;;;;;;4.47;3.13;;;3.20;58.20;;;;;;5053640;28;20036;-92
2021/03/09 05:28:03;;;;;;;14.03;2.27;;;3.20;58.30;;;;;;5034824;28;20052;-92
2021/03/09 05:30:30;;;;;;;4.17;1.43;;;3.20;58.30;;;;;;5050642;28;20033;-91
2021/03/09 05:32:57;;;;;;;9.10;2.07;;;3.20;58.30;;;;;;5037407;28;20057;-91
2021/03/09 05:35:23;;;;;;;4.27;2.73;;;3.20;58.30;;;;;;5056658;28;20029;-90
2021/03/09 05:37:49;;;;;;;5.03;3.50;;;3.20;58.30;;;;;;5055599;28;20044;-91
2021/03/09 05:40:16;;;;;;;19.03;2.70;;;3.20;58.30;;;;;;5055770;28;20056;-91
2021/03/09 05:42:47;;;;;;;2.97;2.30;;;3.20;58.30;;;;;;5036602;28;20049;-92
2021/03/09 05:45:13;;;;;;;4.28;1.70;;;3.10;58.40;;;;;;5035376;28;20029;-92
2021/03/09 05:47:39;;;;;;;3.93;2.37;;;3.10;58.40;;;;;;5055825;28;20044;-92
2021/03/09 05:50:06;;;;;;;8.63;1.20;;;3.10;58.40;;;;;;5055749;28;20036;-92
2021/03/09 05:52:32;;;;;;;3.53;1.33;;;3.00;58.40;;;;;;5056512;28;20040;-90
2021/03/09 05:54:58;;;;;;;3.90;2.33;;;3.10;58.60;;;;;;5038555;28;20052;-92
2021/03/09 05:57:25;;;;;;;8.13;2.73;;;3.00;58.50;;;;;;5052135;28;20393;-91
2021/03/09 05:59:51;;;;;;;2.63;1.93;;;3.00;58.60;;;;;;5055883;28;20021;-92
2021/03/09 06:02:17;;;;;;;6.40;1.90;;;3.00;58.60;;;;;;5054707;28;20029;-92
2021/03/09 06:04:44;;;;;;;5.43;2.63;;;3.00;58.70;;;;;;5055442;28;20028;-91
2021/03/09 06:07:10;;;;;;;8.47;3.43;;;3.00;58.70;;;;;;5053545;28;20028;-91
2021/03/09 06:09:37;;;;;;;3.33;1.73;;;3.00;58.70;;;;;;5049823;28;20042;-92
2021/03/09 06:12:21;;;;;;;7.90;2.10;;;2.90;58.70;;;;;;5054353;28;20052;-89
2021/03/09 06:14:56;;;;;;;3.87;1.47;;;3.00;58.70;;;;;;5055095;28;20013;-92
2021/03/09 06:17:24;;;;;;;10.37;2.10;;;2.90;58.70;;;;;;5056115;28;20046;-91
2021/03/09 06:19:50;;;;;;;2.27;1.63;;;2.90;58.80;;;;;;5055143;28;20029;-91
2021/03/09 06:22:17;;;;;;;3.63;2.33;;;2.90;58.70;;;;;;5038193;28;20048;-91
2021/03/09 06:24:44;;;;;;;6.07;1.83;;;2.90;58.80;;;;;;5054430;28;20033;-89
2021/03/09 06:27:30;;;;;;;5.20;1.80;;;2.90;58.80;;;;;;5052115;28;20040;-91
2021/03/09 06:29:57;;;;;;;2.40;1.47;;;2.90;58.80;;;;;;5064559;28;20032;-89
2021/03/09 06:32:23;;;;;;;5.40;2.10;;;2.90;58.80;;;;;;5054710;28;20052;-91
2021/03/09 06:34:51;;;;;;;3.53;1.70;;;2.80;58.90;;;;;;5054998;28;20037;-89
2021/03/09 06:37:24;;;;;;;6.17;1.87;;;2.80;58.90;;;;;;5055820;28;20397;-88
2021/03/09 06:39:51;;;;;;;4.90;1.87;;;2.80;58.90;;;;;;5054128;28;20021;-90
2021/03/09 06:42:30;;;;;;;7.87;2.27;;;2.80;59.00;;;;;;5050666;28;20041;-92
2021/03/09 06:45:00;;;;;;;4.37;2.17;;;2.80;59.60;;;;;;5063285;28;20025;-88
2021/03/09 06:47:46;;;;;;;3.07;1.77;;;2.80;58.90;;;;;;5036704;28;20040;-88
2021/03/09 06:50:16;;;;;;;2.80;1.73;;;2.80;58.90;;;;;;5054734;28;20053;-92
2021/03/09 06:52:43;;;;;;;2.63;1.73;;;2.80;58.90;;;;;;5054740;28;20047;-91
2021/03/09 06:55:11;;;;;;;4.23;1.17;;;2.90;58.90;;;;;;5055958;28;20056;-90
2021/03/09 06:57:38;;;;;;;3.30;1.67;;;2.90;58.80;;;;;;5053192;28;20036;-92
2021/03/09 07:00:06;;;;;;;7.87;2.40;;;2.90;58.80;;;;;;5035402;28;20401;-91
2021/03/09 07:02:32;;;;;;;1.67;1.20;;;3.00;58.80;;;;;;5054563;28;20453;-91
2021/03/09 07:05:04;;;;;;;4.87;3.00;;;3.00;58.80;;;;;;5054538;28;20033;-92
2021/03/09 07:07:34;;;;;;;2.27;1.17;;;2.90;58.80;;;;;;5034206;28;20030;-91
2021/03/09 07:10:10;;;;;;;2.42;1.23;;;3.00;58.80;;;;;;5040411;28;20474;-90
2021/03/09 07:12:39;;;;;;;5.63;1.90;;;3.00;58.80;;;;;;5055465;28;20048;-88
2021/03/09 07:15:06;;;;;;;3.20;1.80;;;3.00;58.70;;;;;;5034525;28;20037;-88
2021/03/09 07:17:34;;;;;;;6.60;2.67;;;3.10;58.80;;;;;;5045032;28;20055;-87
2021/03/09 07:20:00;;;;;;;4.63;2.57;;;3.10;58.80;;;;;;5038865;28;20067;-87
2021/03/09 07:22:26;;;;;;;5.40;1.30;;;3.10;59.30;;;;;;5054649;28;20048;-89
2021/03/09 07:25:04;;;;;;;11.03;2.97;;;3.20;58.80;;;;;;5048979;28;20409;-90
2021/03/09 07:27:51;;;;;;;8.00;2.33;;;3.30;58.80;;;;;;5031576;28;20040;-89
2021/03/09 07:30:19;;;;;;;5.27;2.63;;;3.40;58.70;;;;;;5052608;28;20032;-88
2021/03/09 07:32:52;;;;;;;4.37;2.07;;;3.60;58.40;;;;;;5033901;28;20378;-87
2021/03/09 07:35:21;;;;;;;11.37;3.07;;;4.00;57.90;;;;;;5037476;28;20029;-84
2021/03/09 07:37:48;;;;;;;3.03;1.50;;;4.30;57.30;;;;;;5056042;28;20029;-84
2021/03/09 07:40:21;;;;;;;6.13;2.90;;;4.70;56.90;;;;;;5049708;28;20040;-89
2021/03/09 07:42:48;;;;;;;9.07;3.20;;;5.00;56.40;;;;;;5057221;28;20040;-93
2021/03/09 07:45:15;;;;;;;8.67;2.97;;;5.30;56.10;;;;;;5031060;28;20041;-93
2021/03/09 07:47:52;;;;;;;4.70;1.70;;;5.50;55.80;;;;;;5033169;28;20049;-88
2021/03/09 07:50:18;;;;;;;13.47;2.30;;;5.90;55.70;;;;;;5046532;28;20032;-88
2021/03/09 07:53:04;;;;;;;10.90;2.87;;;6.10;55.40;;;;;;5049634;28;20047;-87
2021/03/09 07:55:30;;;;;;;6.27;3.17;;;6.40;55.10;;;;;;5046393;28;20032;-87
2021/03/09 07:58:15;;;;;;;15.63;2.57;;;6.60;55.00;;;;;;5032889;28;20060;-88
2021/03/09 08:01:05;;;;;;;11.07;2.87;;;6.80;55.00;;;;;;5050560;28;20033;-87
2021/03/09 08:03:35;;;;;;;7.27;2.67;;;7.00;54.90;;;;;;5036930;28;20012;-85
2021/03/09 08:06:02;;;;;;;6.85;2.40;;;7.10;54.80;;;;;;5052300;28;20025;-85
2021/03/09 08:08:55;;;;;;;3.83;1.75;;;7.30;54.70;;;;;;5052883;28;20017;-87
2021/03/09 08:11:23;;;;;;;8.43;2.53;;;7.50;54.70;;;;;;5053260;28;20040;-87
2021/03/09 08:13:49;;;;;;;8.38;3.40;;;7.70;54.60;;;;;;5046480;28;20048;-85
2021/03/09 08:16:23;;;;;;;9.10;2.97;;;7.90;54.50;;;;;;5048352;28;20041;-91
2021/03/09 08:19:24;;;;;;;17.65;3.53;;;8.00;54.40;;;;;;5053274;28;20029;-90
2021/03/09 08:21:57;;;;;;;11.03;3.27;;;8.20;54.30;;;;;;5046561;28;20060;-90
2021/03/09 08:24:42;;;;;;;7.53;2.70;;;8.40;54.20;;;;;;5051569;28;20287;-91
2021/03/09 08:27:29;;;;;;;6.63;2.60;;;8.50;54.20;;;;;;5066813;28;20052;-90
2021/03/09 08:30:05;;;;;;;6.75;2.40;;;8.70;54.10;;;;;;5053854;28;20377;-86
2021/03/09 08:32:31;;;;;;;3.05;1.50;;;8.90;54.60;;;;;;5068377;28;20044;-86
2021/03/09 08:35:12;;;;;;;15.30;4.22;;;9.00;53.90;;;;;;5045679;28;20028;-84
2021/03/09 08:37:43;;;;;;;8.40;2.92;;;9.30;53.90;;;;;;5065537;28;20187;-87
2021/03/09 08:40:11;;;;;;;12.70;4.25;;;9.40;53.70;;;;;;5057766;28;20029;-87
2021/03/09 08:43:10;;;;;;;12.05;3.17;;;9.60;53.60;;;;;;5053750;28;20037;-86
2021/03/09 08:45:39;;;;;;;11.85;3.20;;;9.70;53.60;;;;;;5055892;28;20057;-89
2021/03/09 08:48:06;;;;;;;5.82;2.80;;;9.90;53.50;;;;;;5053832;28;20032;-87
2021/03/09 08:50:39;;;;;;;3.28;1.58;;;10.00;53.50;;;;;;5056942;28;20029;-88
2021/03/09 08:53:05;;;;;;;8.27;3.45;;;9.90;53.50;;;;;;5057485;28;20052;-88
2021/03/09 08:55:31;;;;;;;18.00;1.35;;;9.80;53.70;;;;;;5055677;28;20036;-88
2021/03/09 08:58:05;;;;;;;6.90;1.95;;;9.70;53.90;;;;;;5057091;28;20390;-84
2021/03/09 09:00:31;;;;;;;5.72;2.28;;;9.60;54.10;;;;;;5053433;28;20040;-87
2021/03/09 09:02:57;;;;;;;17.13;3.20;;;9.50;54.90;;;;;;5038285;28;20029;-88
2021/03/09 09:05:28;;;;;;;7.57;2.58;;;9.40;54.40;;;;;;5057637;28;20033;-86
2021/03/09 09:07:54;;;;;;;9.82;2.10;;;9.40;54.50;;;;;;5054820;28;20072;-85
2021/03/09 09:10:25;;;;;;;3.38;1.35;;;9.60;54.50;;;;;;5055328;28;20482;-85
2021/03/09 09:12:52;;;;;;;5.50;2.55;;;9.90;54.10;;;;;;5055507;28;20032;-82
2021/03/09 09:15:25;;;;;;;7.20;2.22;;;10.10;53.90;;;;;;5051631;28;20040;-82
2021/03/09 09:17:57;;;;;;;19.77;2.55;;;10.30;53.80;;;;;;5029975;28;20368;-82
2021/03/09 09:20:38;;;;;;;5.00;2.53;;;10.50;53.50;;;;;;5057251;28;20033;-82
2021/03/09 09:23:05;;;;;;;5.15;1.95;;;10.60;53.40;;;;;;5055766;28;20032;-83
2021/03/09 09:25:34;;;;;;;3.55;1.67;;;10.70;53.40;;;;;;5051545;28;20041;-84
2021/03/09 09:28:00;;;;;;;4.53;1.45;;;10.80;53.40;;;;;;5046893;28;20544;-84
2021/03/09 09:30:37;;;;;;;5.40;2.78;;;10.90;53.40;;;;;;5050926;28;20033;-84
2021/03/09 09:33:05;;;;;;;21.92;2.70;;;10.90;53.40;;;;;;5054281;28;20425;-84
2021/03/09 09:35:31;;;;;;;7.93;1.92;;;11.00;53.40;;;;;;5051112;28;20032;-87
2021/03/09 09:37:58;;;;;;;6.00;2.58;;;11.00;53.30;;;;;;5057197;28;20043;-87
2021/03/09 09:40:38;;;;;;;5.60;1.67;;;11.10;53.30;;;;;;5052719;28;20032;-86
2021/03/09 09:43:11;;;;;;;5.97;2.15;;;11.10;53.10;;;;;;5054797;28;20052;-85
2021/03/09 09:45:45;;;;;;;5.90;1.98;;;11.00;53.00;;;;;;5053169;28;20041;-85
2021/03/09 09:48:16;;;;;;;9.68;1.90;;;10.90;53.20;;;;;;5035932;28;20466;-86
2021/03/09 09:50:47;;;;;;;4.78;2.50;;;11.00;53.40;;;;;;5035393;28;20049;-86
2021/03/09 09:53:27;;;;;;;6.15;2.28;;;11.10;53.10;;;;;;5055187;28;20041;-84
2021/03/09 09:55:56;;;;;;;4.70;2.28;;;11.20;53.00;;;;;;5056147;28;20037;-83
2021/03/09 09:58:22;;;;;;;6.18;2.03;;;11.60;52.80;;;;;;5054886;28;20464;-83
2021/03/09 10:00:55;;;;;;;2.72;1.35;;;12.00;52.30;;;;;;5051745;28;20389;-85
2021/03/09 10:03:21;;;;;;;8.63;3.15;;;12.30;51.80;;;;;;5035610;28;20045;-84
2021/03/09 10:05:49;;;;;;;10.85;2.67;;;12.30;51.70;;;;;;5060607;28;20032;-85
2021/03/09 10:08:33;;;;;;;2.28;1.77;;;12.20;52.00;;;;;;5054444;28;20043;-85
2021/03/09 10:11:00;;;;;;;7.90;3.13;;;12.10;51.90;;;;;;5054759;28;20394;-85
2021/03/09 10:13:26;;;;;;;15.02;3.58;;;12.00;52.10;;;;;;5054502;28;20048;-85
2021/03/09 10:15:52;;;;;;;4.65;1.58;;;11.90;52.30;;;;;;5036764;28;20508;-91
2021/03/09 10:18:23;;;;;;;6.82;2.47;;;11.80;52.30;;;;;;5035915;28;20033;-80
2021/03/09 10:21:13;;;;;;;7.40;2.47;;;11.90;52.30;;;;;;5055980;28;20059;-87
2021/03/09 10:23:58;;;;;;;6.97;2.40;;;11.90;52.10;;;;;;5039544;28;20036;-86
2021/03/09 10:26:41;;;;;;;11.10;2.58;;;11.80;52.10;;;;;;5055207;28;20033;-86
2021/03/09 10:29:17;;;;;;;5.18;2.50;;;12.00;52.20;;;;;;5055159;28;20029;-87
2021/03/09 10:31:51;;;;;;;3.17;0.90;;;12.20;52.00;;;;;;5055379;28;20033;-85
2021/03/09 10:34:21;;;;;;;12.00;2.92;;;12.40;51.50;;;;;;5035939;28;20037;-88
2021/03/09 10:36:47;;;;;;;5.72;2.20;;;12.30;51.20;;;;;;5052308;28;20036;-83
2021/03/09 10:39:14;;;;;;;7.18;2.30;;;12.20;51.40;;;;;;5052132;28;20408;-84
2021/03/09 10:41:40;;;;;;;14.10;2.75;;;12.30;51.60;;;;;;5054567;28;20084;-84
2021/03/09 10:44:06;;;;;;;5.72;1.80;;;12.40;51.40;;;;;;5054366;28;20040;-84
2021/03/09 10:46:35;;;;;;;10.52;2.10;;;12.50;51.40;;;;;;5053489;28;20033;-85
2021/03/09 10:49:01;;;;;;;5.80;3.05;;;12.60;51.10;;;;;;5037201;28;20049;-87
2021/03/09 10:51:29;;;;;;;14.45;2.78;;;12.50;50.90;;;;;;5051402;28;20040;-88
2021/03/09 10:53:55;;;;;;;6.68;1.27;;;12.60;51.10;;;;;;5066967;28;20040;-85
2021/03/09 10:56:21;;;;;;;3.60;0.75;;;12.80;51.00;;;;;;5017937;28;20041;-85
2021/03/09 10:58:47;;;;;;;7.25;1.73;;;13.10;50.40;;;;;;5051234;28;20036;-90
2021/03/09 11:01:13;;;;;;;7.97;2.08;;;13.00;50.10;;;;;;5049220;28;20041;-89
2021/03/09 11:03:39;;;;;;;3.90;1.40;;;12.90;50.20;;;;;;5051897;28;20508;-88
2021/03/09 11:06:05;;;;;;;3.47;1.65;;;12.90;50.40;;;;;;5052372;28;20029;-87
2021/03/09 11:08:31;;;;;;;4.25;2.30;;;13.20;50.20;;;;;;5017592;28;20034;-91
2021/03/09 11:10:57;;;;;;;5.82;2.80;;;13.30;49.90;;;;;;5042390;28;20712;-89
2021/03/09 11:13:23;;;;;;;4.43;1.45;;;13.40;49.80;;;;;;5042706;28;20410;-87
2021/03/09 11:15:49;;;;;;;6.63;2.10;;;13.40;49.80;;;;;;5052554;28;20045;-87
2021/03/09 11:18:16;;;;;;;3.72;1.50;;;13.50;49.70;;;;;;5051050;28;20037;-87
2021/03/09 11:20:42;;;;;;;5.43;1.45;;;13.60;49.40;;;;;;5053903;28;20029;-87
2021/03/09 11:23:08;;;;;;;6.55;2.60;;;13.70;49.40;;;;;;5053721;28;20041;-86
2021/03/09 11:25:36;;;;;;;4.13;0.80;;;13.70;49.20;;;;;;5054833;28;20048;-88
2021/03/09 11:28:03;;;;;;;9.38;3.60;;;13.60;49.00;;;;;;5053881;28;20035;-92
2021/03/09 11:30:29;;;;;;;3.83;1.95;;;13.60;49.20;;;;;;5057963;28;20033;-90
2021/03/09 11:32:56;;;;;;;8.38;1.52;;;13.60;49.10;;;;;;5041493;28;20057;-87
2021/03/09 11:35:22;;;;;;;9.38;2.83;;;13.60;49.00;;;;;;5059838;28;20416;-89
2021/03/09 11:37:48;;;;;;;9.05;2.63;;;13.70;48.80;;;;;;5043884;28;20040;-89
2021/03/09 11:40:14;;;;;;;5.65;2.78;;;13.90;48.80;;;;;;5038011;28;20044;-90
2021/03/09 11:42:41;;;;;;;6.60;2.45;;;14.00;48.50;;;;;;5071541;28;20351;-89
2021/03/09 11:45:07;;;;;;;6.72;2.72;;;14.20;48.30;;;;;;5052550;28;20481;-92
2021/03/09 11:47:34;;;;;;;5.25;1.60;;;14.20;48.30;;;;;;5055176;28;20032;-93
2021/03/09 11:50:09;;;;;;;10.48;3.42;;;14.10;48.00;;;;;;5041585;28;20410;-92
2021/03/09 11:52:35;;;;;;;11.95;2.42;;;13.90;47.80;;;;;;5054754;28;20049;-93
2021/03/09 11:55:01;;;;;;;14.98;3.97;;;13.80;48.00;;;;;;5076604;28;20026;-94
2021/03/09 11:57:28;;;;;;;5.85;1.75;;;14.00;48.00;;;;;;5088150;28;20021;-94
2021/03/09 11:59:54;;;;;;;4.90;2.42;;;14.20;47.70;;;;;;5062514;28;20040;-93
2021/03/09 12:02:20;;;;;;;10.48;2.75;;;14.30;47.40;;;;;;5046160;28;20036;-91
2021/03/09 12:04:46;;;;;;;6.05;2.13;;;14.50;47.40;;;;;;5055233;28;20052;-88
2021/03/09 12:07:12;;;;;;;5.60;2.00;;;14.60;47.10;;;;;;5056232;28;20032;-91
2021/03/09 12:09:38;;;;;;;9.18;3.75;;;14.70;46.90;;;;;;5065695;28;20033;-91
2021/03/09 12:12:05;;;;;;;8.02;3.28;;;14.90;46.90;;;;;;5043955;28;20021;-91
2021/03/09 12:14:31;;;;;;;7.78;2.80;;;15.10;46.60;;;;;;5042955;28;20037;-92
2021/03/09 12:16:57;;;;;;;8.85;3.13;;;15.40;46.40;;;;;;5057205;28;20036;-88
2021/03/09 12:19:23;;;;;;;10.77;2.42;;;15.60;46.20;;;;;;5036179;28;20049;-88
2021/03/09 12:21:49;;;;;;;3.75;0.80;;;15.80;46.00;;;;;;5043586;28;20033;-88
2021/03/09 12:24:16;;;;;;;4.85;1.45;;;15.80;45.80;;;;;;5052981;28;20048;-90
2021/03/09 12:26:42;;;;;;;5.20;1.92;;;15.70;45.80;;;;;;5057423;28;20025;-90
2021/03/09 12:29:08;;;;;;;11.50;2.40;;;15.40;45.80;;;;;;5036376;28;20402;-91
2021/03/09 12:31:35;;;;;;;6.05;1.42;;;15.20;45.90;;;;;;5051219;28;20036;-88
2021/03/09 12:34:01;;;;;;;7.25;2.65;;;14.90;46.10;;;;;;5064562;28;20041;-87
2021/03/09 12:36:27;;;;;;;7.95;2.70;;;14.70;46.40;;;;;;5068523;28;20488;-89
2021/03/09 12:38:53;;;;;;;4.75;1.42;;;14.80;46.50;;;;;;5055401;28;20048;-88
2021/03/09 12:41:19;;;;;;;8.60;2.08;;;14.90;46.40;;;;;;5054536;28;20048;-89
2021/03/09 12:43:45;;;;;;;9.00;3.72;;;14.90;46.10;;;;;;5056514;28;20047;-87
2021/03/09 12:46:11;;;;;;;15.25;2.28;;;14.80;46.00;;;;;;5030163;28;20512;-90
2021/03/09 12:48:37;;;;;;;6.10;2.67;;;14.70;46.00;;;;;;5041388;28;20044;-86
2021/03/09 12:51:04;;;;;;;10.85;2.28;;;14.80;46.10;;;;;;5054289;28;20386;-87
2021/03/09 12:53:30;;;;;;;6.28;2.40;;;15.10;45.90;;;;;;5056310;28;20032;-86
2021/03/09 12:55:56;;;;;;;15.20;3.17;;;15.30;45.60;;;;;;5056109;28;20025;-86
2021/03/09 12:58:22;;;;;;;9.05;3.15;;;15.40;45.40;;;;;;5057142;28;20033;-86
2021/03/09 13:00:48;;;;;;;7.40;3.47;;;15.50;45.20;;;;;;5053555;28;20033;-86
2021/03/09 13:03:17;;;;;;;11.40;2.33;;;15.70;45.60;;;;;;5035732;28;20053;-86